CheckWX is a tool to help pilots better visualize weather data.  It is not intended as a substitute for an official pre-flight weather briefing.

04:36:04 UTC

LFPN METAR
Toussus-le-Noble Airport
Toussus-le-Noble, France
Current

36 mins ago

LFPN 020400Z AUTO 35006KT CAVOK 00/M02 Q1016
Observed
Apr-2 @ 04:00 UTC
Wind
  • 350° at 6 KTS
Visibility
10,000+ meters
Flight Rules
VFR
Cloud Levels
  • Clear skies
Temperature
C / 32°F
Dewpoint
-2°C / 28°F
Humidity
87%
Altimeter
30" Hg
Pressure
1015.92 hPa
Previous

1 hour ago

LFPN 020330Z AUTO 35005KT CAVOK 00/M02 Q1016
Observed
Apr-2 @ 03:30 UTC
Wind
  • 350° at 5 KTS
Visibility
10,000+ meters
Flight Rules
VFR
Cloud Levels
  • Clear skies
Temperature
C / 32°F
Dewpoint
-2°C / 28°F
Humidity
87%
Altimeter
30" Hg
Pressure
1015.92 hPa
Previous

2 hours ago

LFPN 020300Z AUTO 36007KT CAVOK 00/M03 Q1016
Observed
Apr-2 @ 03:00 UTC
Wind
  • 360° at 7 KTS
Visibility
10,000+ meters
Flight Rules
VFR
Cloud Levels
  • Clear skies
Temperature
C / 32°F
Dewpoint
-3°C / 27°F
Humidity
80%
Altimeter
30" Hg
Pressure
1015.92 hPa